Happy Valentine's Day! 

Flight Track Log - Related Links

Times and Time Zones

All times are in EDT time to prevent confusion due to time zone crossing. See the SWA378 flight status page for this flight to view local times or setup timezone preferences in your user account.


Time Position Orientation Groundspeed Altitude Reporting Facility
EDT Latitude Longitude Course Direction KTS MPH feet Rate Location/Type
Fri 06:38:34 PM 33.6347 -84.4756 258° West 429 494 2,600  Level Atlanta Center
Fri 06:38:49 PM 33.6333 -84.4833 258° West 183 211 3,000 1,920 Climbing Atlanta TRACON
Fri 06:39:49 PM 33.6000 -84.5500 239° Southwest 253 291 5,000 2,850 Climbing Atlanta TRACON
Fri 06:40:49 PM 33.5333 -84.5833 203° Southwest 249 287 8,700 2,655 Climbing Atlanta TRACON
Fri 06:42:34 PM 33.4553 -84.4719 130° Southeast 303 349 12,300 2,291 Climbing Atlanta Center
Fri 06:43:34 PM 33.4536 -84.3625 91° East 315 362 15,000 2,800 Climbing Atlanta Center
Fri 06:44:34 PM 33.4747 -84.2331 79° East 395 455 17,900 2,800 Climbing Atlanta Center
Fri 06:45:34 PM 33.5269 -84.1086 63° Northeast 400 460 20,600 2,600 Climbing Atlanta Center
Fri 06:46:34 PM 33.5814 -83.9789 63° Northeast 423 487 23,100 1,200 Climbing Atlanta Center
Fri 06:47:34 PM 33.6189 -83.8442 71° East 428 493 23,000 700 Descending Atlanta Center
Fri 06:48:34 PM 33.6456 -83.7019 77° East 428 493 24,500 1,650 Climbing Atlanta Center
Fri 06:49:34 PM 33.6931 -83.5619 68° East 440 506 26,300 1,250 Climbing Atlanta Center
Fri 06:50:34 PM 33.7508 -83.4192 64° Northeast 463 533 27,000 1,250 Climbing Atlanta Center
Fri 06:51:34 PM 33.8064 -83.2814 64° Northeast 469 540 28,800 1,600 Climbing Atlanta Center
Fri 06:52:34 PM 33.8661 -83.1331 64° Northeast 469 540 30,200 1,550 Climbing Atlanta Center
Fri 06:53:34 PM 33.9317 -82.9747 63° Northeast 474 545 31,900 1,850 Climbing Atlanta Center
Fri 06:54:34 PM 33.9867 -82.8261 66° East 474 545 33,900 1,400 Climbing Atlanta Center
Fri 06:55:34 PM 34.0497 -82.6775 63° Northeast 474 545 34,700 550 Climbing Atlanta Center
Fri 06:56:34 PM 34.1064 -82.5258 66° East 488 562 35,000 150 Climbing Atlanta Center
Fri 06:57:34 PM 34.1589 -82.3969 64° Northeast 483 556 35,000  Level Atlanta Center
Fri 06:58:34 PM 34.2153 -82.2503 65° Northeast 483 556 35,000  Level Atlanta Center
Fri 06:59:34 PM 34.2758 -82.1081 63° Northeast 483 556 35,000  Level Atlanta Center
Fri 07:00:34 PM 34.3444 -81.9683 59° Northeast 483 556 35,000  Level Atlanta Center
Fri 07:01:34 PM 34.4131 -81.8331 58° Northeast 478 550 35,000  Level Atlanta Center
Fri 07:02:34 PM 34.4836 -81.6900 59° Northeast 478 550 35,000  Level Atlanta Center
Fri 07:03:34 PM 34.5517 -81.5544 59° Northeast 478 550 35,000  Level Atlanta Center
Fri 07:04:34 PM 34.6197 -81.4136 60° Northeast 478 550 35,000  Level Atlanta Center
Fri 07:05:34 PM 34.6878 -81.2778 59° Northeast 478 550 35,000  Level Atlanta Center
Fri 07:06:34 PM 34.7575 -81.1339 59° Northeast 478 550 35,000  Level Atlanta Center
Fri 07:07:34 PM 34.8250 -80.9947 59° Northeast 478 550 35,000  Level Atlanta Center
Fri 07:08:34 PM 34.8944 -80.8531 59° Northeast 478 550 35,000  Level Atlanta Center
Fri 07:09:34 PM 34.9617 -80.7136 60° Northeast 478 550 35,000  Level Atlanta Center
Fri 07:12:00 PM 35.1214 -80.3786 60° Northeast 486 559 35,000  Level Washington Center
Fri 07:12:57 PM 35.1917 -80.2381 59° Northeast 468 539 35,000  Level Washington Center
Fri 07:13:58 PM 35.2553 -80.0992 61° Northeast 467 537 35,000  Level Washington Center
Fri 07:14:58 PM 35.3228 -79.9656 58° Northeast 467 537 35,000  Level Washington Center
Fri 07:15:59 PM 35.3864 -79.8264 61° Northeast 462 532 35,000  Level Washington Center
Fri 07:16:57 PM 35.4536 -79.6869 59° Northeast 462 532 35,000  Level Washington Center
Fri 07:17:58 PM 35.5189 -79.5500 60° Northeast 462 532 35,000 -344 Level Washington Center
Fri 07:18:59 PM 35.5839 -79.4103 60° Northeast 462 532 34,300 -807 Descending Washington Center
Fri 07:19:57 PM 35.6489 -79.2703 60° Northeast 462 532 33,400 -958 Descending Washington Center
Fri 07:20:58 PM 35.7156 -79.1325 59° Northeast 467 537 32,400 -992 Descending Washington Center
Fri 07:21:58 PM 35.7803 -78.9894 61° Northeast 467 537 31,400 -992 Descending Washington Center
Fri 07:22:59 PM 35.8492 -78.8414 60° Northeast 467 537 30,400 -1,041 Descending Washington Center
Fri 07:23:59 PM 35.8864 -78.6942 73° East 450 518 29,300 -700 Descending Washington Center
Fri 07:24:59 PM 35.8986 -78.5408 84° East 443 510 29,000 -151 Descending Washington Center
Fri 07:25:58 PM 35.9147 -78.3900 82° East 443 510 29,000 -500 Level Washington Center
Fri 07:26:59 PM 35.9264 -78.2392 84° East 443 510 28,000 -992 Descending Washington Center
Fri 07:27:59 PM 35.9422 -78.0961 82° East 443 510 27,000 -1,017 Descending Washington Center
Fri 07:28:57 PM 35.9556 -77.9503 84° East 432 497 26,000 -1,475 Descending Washington Center
Fri 07:29:57 PM 35.9686 -77.8042 84° East 426 490 24,100 -1,438 Descending Washington Center
Fri 07:30:58 PM 35.9961 -77.6664 76° East 426 490 23,100 -984 Descending Washington Center
Fri 07:31:59 PM 36.0608 -77.5472 56° Northeast 411 473 22,100 -1,008 Descending Washington Center
Fri 07:32:57 PM 36.1231 -77.4331 56° Northeast 399 459 21,100 -1,008 Descending Washington Center
Fri 07:33:58 PM 36.1833 -77.3239 56° Northeast 393 452 20,100 -984 Descending Washington Center
Fri 07:34:59 PM 36.2411 -77.2119 57° Northeast 382 440 19,100 -1,008 Descending Washington Center
Fri 07:35:57 PM 36.3008 -77.1022 56° Northeast 383 441 18,100 -1,121 Descending Washington Center
Fri 07:36:46 PM 36.3436 -77.0181 58° Northeast 377 434 17,100 -1,706 Descending Washington Center
Fri 07:37:46 PM 36.3992 -76.9131 57° Northeast 363 418 15,000 -1,850 Descending Washington Center
Fri 07:38:59 PM 36.4653 -76.7853 57° Northeast 365 420 13,000 -1,726 Descending Washington Center
Fri 07:38:59 PM 36.4653 -76.7853 57° Northeast 355 409 12,900 -1,862 Descending Washington Center
Fri 07:39:57 PM 36.5142 -76.6850 59° Northeast 359 413 11,200 -1,513 Descending Washington Center
Fri 07:40:58 PM 36.5631 -76.5875 58° Northeast 345 397 9,900 -1,140 Descending Washington Center
Fri 07:41:58 PM 36.6117 -76.4975 56° Northeast 322 371 8,900 -1,008 Descending Washington Center
Fri 07:43:09 PM 36.6519 -76.3867 66° East 307 353 7,700 -1,161 Descending Washington Center
Fri 07:44:02 PM 36.7067 -76.3175 45° Northeast 298 343 6,500 -944 Descending Washington Center
Fri 07:44:57 PM 36.7572 -76.2633 41° Northeast 290 334 6,000 -517 Descending Washington Center
Fri 07:45:58 PM 36.8181 -76.1989 40° Northeast 250 288 5,500 -787 Descending Washington Center
Fri 07:46:59 PM 36.8725 -76.1422 40° Northeast 254 292 4,400 -1,082 Descending Washington Center

Login

Don't have an account? Register now (free) for customized features, flight alerts, and more!